sensor_id;sensor_type;location;lat;lon;timestamp;temperature;humidity
13072;DHT22;6602;58.934;11.166;2023-02-26T00:05:03;-0.30;99.90
13072;DHT22;6602;58.934;11.166;2023-02-26T00:10:10;-0.40;99.90
13072;DHT22;6602;58.934;11.166;2023-02-26T00:15:18;-0.50;99.90
13072;DHT22;6602;58.934;11.166;2023-02-26T00:20:22;-0.60;99.90
13072;DHT22;6602;58.934;11.166;2023-02-26T00:25:41;-0.50;99.90
13072;DHT22;6602;58.934;11.166;2023-02-26T00:30:52;-0.40;99.90
13072;DHT22;6602;58.934;11.166;2023-02-26T00:36:00;-0.30;99.90
13072;DHT22;6602;58.934;11.166;2023-02-26T00:41:06;-0.30;99.90
13072;DHT22;6602;58.934;11.166;2023-02-26T00:46:50;-0.30;99.90
13072;DHT22;6602;58.934;11.166;2023-02-26T00:52:06;-0.30;99.90
13072;DHT22;6602;58.934;11.166;2023-02-26T00:57:13;-0.20;99.90
13072;DHT22;6602;58.934;11.166;2023-02-26T01:02:15;-0.10;99.90
13072;DHT22;6602;58.934;11.166;2023-02-26T01:12:48;-0.10;99.90
13072;DHT22;6602;58.934;11.166;2023-02-26T01:18:11;-0.10;99.90
13072;DHT22;6602;58.934;11.166;2023-02-26T01:23:17;-0.10;99.90
13072;DHT22;6602;58.934;11.166;2023-02-26T01:28:21;0.00;99.90
13072;DHT22;6602;58.934;11.166;2023-02-26T01:33:28;0.00;99.90
13072;DHT22;6602;58.934;11.166;2023-02-26T01:38:44;0.00;99.90
13072;DHT22;6602;58.934;11.166;2023-02-26T01:49:03;0.00;99.90
13072;DHT22;6602;58.934;11.166;2023-02-26T01:54:04;0.00;99.90
13072;DHT22;6602;58.934;11.166;2023-02-26T01:59:20;0.00;99.90
13072;DHT22;6602;58.934;11.166;2023-02-26T02:04:25;0.00;99.90
13072;DHT22;6602;58.934;11.166;2023-02-26T02:09:27;0.00;99.90
13072;DHT22;6602;58.934;11.166;2023-02-26T02:15:12;0.10;99.90
13072;DHT22;6602;58.934;11.166;2023-02-26T02:31:32;0.10;99.90
13072;DHT22;6602;58.934;11.166;2023-02-26T02:37:03;0.10;99.90
13072;DHT22;6602;58.934;11.166;2023-02-26T02:47:34;0.00;99.90
13072;DHT22;6602;58.934;11.166;2023-02-26T02:53:00;0.00;99.90
13072;DHT22;6602;58.934;11.166;2023-02-26T02:58:20;0.00;99.90
13072;DHT22;6602;58.934;11.166;2023-02-26T03:09:09;-0.10;99.90
13072;DHT22;6602;58.934;11.166;2023-02-26T03:14:19;-0.10;99.90
13072;DHT22;6602;58.934;11.166;2023-02-26T03:25:17;-0.10;99.90
13072;DHT22;6602;58.934;11.166;2023-02-26T03:31:04;-0.10;99.90
13072;DHT22;6602;58.934;11.166;2023-02-26T03:36:24;-0.10;99.90
13072;DHT22;6602;58.934;11.166;2023-02-26T03:41:43;-0.10;99.90
13072;DHT22;6602;58.934;11.166;2023-02-26T03:46:56;0.10;99.90
13072;DHT22;6602;58.934;11.166;2023-02-26T03:52:02;0.10;99.90
13072;DHT22;6602;58.934;11.166;2023-02-26T03:57:09;0.10;99.90
13072;DHT22;6602;58.934;11.166;2023-02-26T04:02:17;0.10;99.90
13072;DHT22;6602;58.934;11.166;2023-02-26T04:07:22;0.20;99.90
13072;DHT22;6602;58.934;11.166;2023-02-26T04:12:27;0.30;99.90
13072;DHT22;6602;58.934;11.166;2023-02-26T04:17:31;0.30;99.90
13072;DHT22;6602;58.934;11.166;2023-02-26T04:22:38;0.30;99.90
13072;DHT22;6602;58.934;11.166;2023-02-26T04:27:51;0.20;99.90
13072;DHT22;6602;58.934;11.166;2023-02-26T04:32:52;0.20;99.90
13072;DHT22;6602;58.934;11.166;2023-02-26T04:37:55;0.20;99.90
13072;DHT22;6602;58.934;11.166;2023-02-26T04:42:59;0.20;99.90
13072;DHT22;6602;58.934;11.166;2023-02-26T04:48:03;0.20;99.90
13072;DHT22;6602;58.934;11.166;2023-02-26T04:53:07;0.10;99.90
13072;DHT22;6602;58.934;11.166;2023-02-26T04:58:08;0.10;99.90
13072;DHT22;6602;58.934;11.166;2023-02-26T05:03:33;0.10;99.90
13072;DHT22;6602;58.934;11.166;2023-02-26T05:08:49;-0.20;99.90
13072;DHT22;6602;58.934;11.166;2023-02-26T05:13:55;-0.50;99.90
13072;DHT22;6602;58.934;11.166;2023-02-26T05:18:56;-0.70;99.90
13072;DHT22;6602;58.934;11.166;2023-02-26T05:24:01;-0.80;99.90
13072;DHT22;6602;58.934;11.166;2023-02-26T05:29:02;-0.90;99.90
13072;DHT22;6602;58.934;11.166;2023-02-26T05:34:04;-1.00;99.90
13072;DHT22;6602;58.934;11.166;2023-02-26T05:39:10;-1.00;99.90
13072;DHT22;6602;58.934;11.166;2023-02-26T05:44:17;-1.00;99.90
13072;DHT22;6602;58.934;11.166;2023-02-26T05:49:22;-0.90;99.90
13072;DHT22;6602;58.934;11.166;2023-02-26T05:54:42;-0.80;99.90
13072;DHT22;6602;58.934;11.166;2023-02-26T05:59:57;-0.80;99.90
13072;DHT22;6602;58.934;11.166;2023-02-26T06:05:03;-0.80;99.90
13072;DHT22;6602;58.934;11.166;2023-02-26T06:10:25;-0.80;99.90
13072;DHT22;6602;58.934;11.166;2023-02-26T06:15:28;-0.90;99.90
13072;DHT22;6602;58.934;11.166;2023-02-26T06:20:35;-0.90;99.90
13072;DHT22;6602;58.934;11.166;2023-02-26T06:25:40;-0.90;99.90
13072;DHT22;6602;58.934;11.166;2023-02-26T06:30:44;-1.00;99.90
13072;DHT22;6602;58.934;11.166;2023-02-26T06:35:49;-1.10;99.90
13072;DHT22;6602;58.934;11.166;2023-02-26T06:40:52;-1.20;99.90
13072;DHT22;6602;58.934;11.166;2023-02-26T06:45:58;-1.20;99.90
13072;DHT22;6602;58.934;11.166;2023-02-26T06:50:59;-1.20;99.90
13072;DHT22;6602;58.934;11.166;2023-02-26T06:56:04;-1.20;99.90
13072;DHT22;6602;58.934;11.166;2023-02-26T07:01:12;-1.20;99.90
13072;DHT22;6602;58.934;11.166;2023-02-26T07:06:15;-0.90;99.90
13072;DHT22;6602;58.934;11.166;2023-02-26T07:11:21;-0.40;99.90
13072;DHT22;6602;58.934;11.166;2023-02-26T07:16:22;0.10;99.90
13072;DHT22;6602;58.934;11.166;2023-02-26T07:21:25;1.20;99.90
13072;DHT22;6602;58.934;11.166;2023-02-26T07:26:37;2.10;99.90
13072;DHT22;6602;58.934;11.166;2023-02-26T07:31:42;2.90;99.90
13072;DHT22;6602;58.934;11.166;2023-02-26T07:36:45;2.00;99.90
13072;DHT22;6602;58.934;11.166;2023-02-26T07:41:51;1.60;99.90
13072;DHT22;6602;58.934;11.166;2023-02-26T07:46:56;1.90;99.90
13072;DHT22;6602;58.934;11.166;2023-02-26T07:52:16;2.50;99.90
13072;DHT22;6602;58.934;11.166;2023-02-26T07:57:22;3.10;99.90
13072;DHT22;6602;58.934;11.166;2023-02-26T08:02:43;2.90;99.90
13072;DHT22;6602;58.934;11.166;2023-02-26T08:07:51;2.80;99.90
13072;DHT22;6602;58.934;11.166;2023-02-26T08:13:10;2.90;99.90
13072;DHT22;6602;58.934;11.166;2023-02-26T08:18:30;3.80;99.90
13072;DHT22;6602;58.934;11.166;2023-02-26T08:23:38;4.30;99.90
13072;DHT22;6602;58.934;11.166;2023-02-26T08:28:58;2.90;99.90
13072;DHT22;6602;58.934;11.166;2023-02-26T08:34:18;2.30;99.90
13072;DHT22;6602;58.934;11.166;2023-02-26T08:39:40;2.40;99.90
13072;DHT22;6602;58.934;11.166;2023-02-26T08:45:00;2.30;99.90
13072;DHT22;6602;58.934;11.166;2023-02-26T08:50:21;2.30;99.90
13072;DHT22;6602;58.934;11.166;2023-02-26T08:55:41;2.40;99.90
13072;DHT22;6602;58.934;11.166;2023-02-26T09:01:03;2.50;99.90
13072;DHT22;6602;58.934;11.166;2023-02-26T09:06:23;2.50;99.90
13072;DHT22;6602;58.934;11.166;2023-02-26T09:11:43;2.40;99.90
13072;DHT22;6602;58.934;11.166;2023-02-26T09:17:04;2.30;99.90
13072;DHT22;6602;58.934;11.166;2023-02-26T09:22:24;2.40;99.90
13072;DHT22;6602;58.934;11.166;2023-02-26T09:27:27;2.40;99.90
13072;DHT22;6602;58.934;11.166;2023-02-26T09:32:48;2.40;99.90
13072;DHT22;6602;58.934;11.166;2023-02-26T09:38:08;2.50;99.90
13072;DHT22;6602;58.934;11.166;2023-02-26T10:01:28;2.60;99.90
13072;DHT22;6602;58.934;11.166;2023-02-26T10:12:20;2.60;99.90
13072;DHT22;6602;58.934;11.166;2023-02-26T10:18:15;2.60;99.90
13072;DHT22;6602;58.934;11.166;2023-02-26T10:23:38;2.70;99.90
13072;DHT22;6602;58.934;11.166;2023-02-26T10:35:18;2.70;99.90
13072;DHT22;6602;58.934;11.166;2023-02-26T10:40:40;2.80;99.90
13072;DHT22;6602;58.934;11.166;2023-02-26T10:51:49;2.90;99.90
13072;DHT22;6602;58.934;11.166;2023-02-26T10:56:55;3.00;99.90
13072;DHT22;6602;58.934;11.166;2023-02-26T11:02:00;3.10;99.90
13072;DHT22;6602;58.934;11.166;2023-02-26T11:07:04;3.10;99.90
13072;DHT22;6602;58.934;11.166;2023-02-26T11:12:31;3.20;99.90
13072;DHT22;6602;58.934;11.166;2023-02-26T11:17:55;3.40;99.90
13072;DHT22;6602;58.934;11.166;2023-02-26T11:23:19;3.50;99.90
13072;DHT22;6602;58.934;11.166;2023-02-26T11:28:42;3.70;99.90
13072;DHT22;6602;58.934;11.166;2023-02-26T11:39:21;3.60;99.90
13072;DHT22;6602;58.934;11.166;2023-02-26T11:44:52;3.80;99.90
13072;DHT22;6602;58.934;11.166;2023-02-26T11:50:19;4.00;99.90
13072;DHT22;6602;58.934;11.166;2023-02-26T11:55:45;4.20;99.90
13072;DHT22;6602;58.934;11.166;2023-02-26T12:01:14;4.30;99.90
13072;DHT22;6602;58.934;11.166;2023-02-26T12:06:48;4.40;99.90
13072;DHT22;6602;58.934;11.166;2023-02-26T12:35:38;4.50;99.90
13072;DHT22;6602;58.934;11.166;2023-02-26T12:41:29;4.50;99.90
13072;DHT22;6602;58.934;11.166;2023-02-26T12:58:55;4.70;99.90
13072;DHT22;6602;58.934;11.166;2023-02-26T13:21:15;5.00;99.90
13072;DHT22;6602;58.934;11.166;2023-02-26T13:26:38;5.10;99.90
13072;DHT22;6602;58.934;11.166;2023-02-26T13:32:28;5.20;99.90
13072;DHT22;6602;58.934;11.166;2023-02-26T13:37:51;5.30;99.90
13072;DHT22;6602;58.934;11.166;2023-02-26T13:54:43;5.60;99.90
13072;DHT22;6602;58.934;11.166;2023-02-26T14:06:36;5.60;99.90
13072;DHT22;6602;58.934;11.166;2023-02-26T14:17:29;5.60;99.90
13072;DHT22;6602;58.934;11.166;2023-02-26T14:23:20;5.80;99.90
13072;DHT22;6602;58.934;11.166;2023-02-26T14:28:53;5.90;99.90
13072;DHT22;6602;58.934;11.166;2023-02-26T14:34:22;5.80;99.90
13072;DHT22;6602;58.934;11.166;2023-02-26T14:39:47;5.70;99.90
13072;DHT22;6602;58.934;11.166;2023-02-26T14:45:31;5.70;99.90
13072;DHT22;6602;58.934;11.166;2023-02-26T14:56:51;5.70;99.90
13072;DHT22;6602;58.934;11.166;2023-02-26T15:02:27;5.70;99.90
13072;DHT22;6602;58.934;11.166;2023-02-26T15:24:52;5.50;99.90
13072;DHT22;6602;58.934;11.166;2023-02-26T15:30:15;5.40;99.90
13072;DHT22;6602;58.934;11.166;2023-02-26T15:35:35;5.30;99.90
13072;DHT22;6602;58.934;11.166;2023-02-26T15:41:01;5.30;99.90
13072;DHT22;6602;58.934;11.166;2023-02-26T15:46:28;5.20;99.90
13072;DHT22;6602;58.934;11.166;2023-02-26T15:51:49;5.20;99.90
13072;DHT22;6602;58.934;11.166;2023-02-26T15:57:11;5.20;99.90
13072;DHT22;6602;58.934;11.166;2023-02-26T16:02:31;5.10;99.90
13072;DHT22;6602;58.934;11.166;2023-02-26T16:07:52;5.00;99.90
13072;DHT22;6602;58.934;11.166;2023-02-26T16:13:15;4.90;99.90
13072;DHT22;6602;58.934;11.166;2023-02-26T16:18:36;4.80;99.90
13072;DHT22;6602;58.934;11.166;2023-02-26T16:23:58;4.60;99.90
13072;DHT22;6602;58.934;11.166;2023-02-26T16:29:29;4.50;99.90
13072;DHT22;6602;58.934;11.166;2023-02-26T16:34:55;4.40;99.90
13072;DHT22;6602;58.934;11.166;2023-02-26T16:40:34;4.20;99.90
13072;DHT22;6602;58.934;11.166;2023-02-26T16:45:55;3.90;99.90
13072;DHT22;6602;58.934;11.166;2023-02-26T16:51:18;3.70;99.90
13072;DHT22;6602;58.934;11.166;2023-02-26T16:56:42;3.50;99.90
13072;DHT22;6602;58.934;11.166;2023-02-26T17:02:17;3.30;99.90
13072;DHT22;6602;58.934;11.166;2023-02-26T17:07:48;3.20;99.90
13072;DHT22;6602;58.934;11.166;2023-02-26T17:13:26;3.00;99.90
13072;DHT22;6602;58.934;11.166;2023-02-26T17:18:45;2.90;99.90
13072;DHT22;6602;58.934;11.166;2023-02-26T17:24:12;2.70;99.90
13072;DHT22;6602;58.934;11.166;2023-02-26T17:29:42;2.60;99.90
13072;DHT22;6602;58.934;11.166;2023-02-26T17:35:04;2.50;99.90
13072;DHT22;6602;58.934;11.166;2023-02-26T17:40:27;2.40;99.90
13072;DHT22;6602;58.934;11.166;2023-02-26T17:45:56;2.30;99.90
13072;DHT22;6602;58.934;11.166;2023-02-26T17:51:16;2.20;99.90
13072;DHT22;6602;58.934;11.166;2023-02-26T17:56:37;2.10;99.90
13072;DHT22;6602;58.934;11.166;2023-02-26T18:01:57;1.90;99.90
13072;DHT22;6602;58.934;11.166;2023-02-26T18:07:16;1.70;99.90
13072;DHT22;6602;58.934;11.166;2023-02-26T18:12:37;1.60;99.90
13072;DHT22;6602;58.934;11.166;2023-02-26T18:17:58;1.50;99.90
13072;DHT22;6602;58.934;11.166;2023-02-26T18:23:17;1.00;99.90
13072;DHT22;6602;58.934;11.166;2023-02-26T18:28:27;0.90;99.90
13072;DHT22;6602;58.934;11.166;2023-02-26T18:33:49;0.90;99.90
13072;DHT22;6602;58.934;11.166;2023-02-26T18:39:09;0.90;99.90
13072;DHT22;6602;58.934;11.166;2023-02-26T18:44:29;0.80;99.90
13072;DHT22;6602;58.934;11.166;2023-02-26T18:49:51;0.60;99.90
13072;DHT22;6602;58.934;11.166;2023-02-26T18:54:58;0.50;99.90
13072;DHT22;6602;58.934;11.166;2023-02-26T19:00:04;0.40;99.90
13072;DHT22;6602;58.934;11.166;2023-02-26T19:05:23;0.30;99.90
13072;DHT22;6602;58.934;11.166;2023-02-26T19:10:45;0.20;99.90
13072;DHT22;6602;58.934;11.166;2023-02-26T19:15:50;0.20;99.90
13072;DHT22;6602;58.934;11.166;2023-02-26T19:21:10;0.20;99.90
13072;DHT22;6602;58.934;11.166;2023-02-26T19:26:34;0.20;99.90
13072;DHT22;6602;58.934;11.166;2023-02-26T19:31:39;0.20;99.90
13072;DHT22;6602;58.934;11.166;2023-02-26T19:36:54;0.10;99.90
13072;DHT22;6602;58.934;11.166;2023-02-26T19:41:59;0.10;99.90
13072;DHT22;6602;58.934;11.166;2023-02-26T19:47:21;0.00;99.90
13072;DHT22;6602;58.934;11.166;2023-02-26T19:52:27;0.00;99.90
13072;DHT22;6602;58.934;11.166;2023-02-26T19:57:49;-0.10;99.90
13072;DHT22;6602;58.934;11.166;2023-02-26T20:02:54;-0.20;99.90
13072;DHT22;6602;58.934;11.166;2023-02-26T20:07:58;-0.20;99.90
13072;DHT22;6602;58.934;11.166;2023-02-26T20:13:12;-0.20;99.90
13072;DHT22;6602;58.934;11.166;2023-02-26T20:18:19;-0.30;99.90
13072;DHT22;6602;58.934;11.166;2023-02-26T20:23:29;-0.30;99.90
13072;DHT22;6602;58.934;11.166;2023-02-26T20:28:33;-0.40;99.90
13072;DHT22;6602;58.934;11.166;2023-02-26T20:33:34;-0.40;99.90
13072;DHT22;6602;58.934;11.166;2023-02-26T20:38:37;-0.40;99.90
13072;DHT22;6602;58.934;11.166;2023-02-26T20:43:56;-0.50;99.90
13072;DHT22;6602;58.934;11.166;2023-02-26T20:48:59;-0.50;99.90
13072;DHT22;6602;58.934;11.166;2023-02-26T20:54:20;-0.40;99.90
13072;DHT22;6602;58.934;11.166;2023-02-26T20:59:29;-0.40;99.90
13072;DHT22;6602;58.934;11.166;2023-02-26T21:04:35;-0.50;99.90
13072;DHT22;6602;58.934;11.166;2023-02-26T21:09:39;-0.60;99.90
13072;DHT22;6602;58.934;11.166;2023-02-26T21:14:43;-0.60;99.90
13072;DHT22;6602;58.934;11.166;2023-02-26T21:20:03;-0.50;99.90
13072;DHT22;6602;58.934;11.166;2023-02-26T21:25:35;-0.50;99.90
13072;DHT22;6602;58.934;11.166;2023-02-26T21:30:53;-0.50;99.90
13072;DHT22;6602;58.934;11.166;2023-02-26T21:35:57;-0.40;99.90
13072;DHT22;6602;58.934;11.166;2023-02-26T21:41:16;-0.40;99.90
13072;DHT22;6602;58.934;11.166;2023-02-26T21:46:19;-0.40;99.90
13072;DHT22;6602;58.934;11.166;2023-02-26T21:51:41;-0.40;99.90
13072;DHT22;6602;58.934;11.166;2023-02-26T21:56:44;-0.30;99.90
13072;DHT22;6602;58.934;11.166;2023-02-26T22:01:49;-0.30;99.90
13072;DHT22;6602;58.934;11.166;2023-02-26T22:06:53;-0.30;99.90
13072;DHT22;6602;58.934;11.166;2023-02-26T22:11:59;-0.20;99.90
13072;DHT22;6602;58.934;11.166;2023-02-26T22:17:12;-0.20;99.90
13072;DHT22;6602;58.934;11.166;2023-02-26T22:22:15;-0.10;99.90
13072;DHT22;6602;58.934;11.166;2023-02-26T22:27:20;-0.10;99.90
13072;DHT22;6602;58.934;11.166;2023-02-26T22:32:40;0.00;99.90
13072;DHT22;6602;58.934;11.166;2023-02-26T22:38:02;0.00;99.90
13072;DHT22;6602;58.934;11.166;2023-02-26T22:43:10;0.00;99.90
13072;DHT22;6602;58.934;11.166;2023-02-26T22:48:16;0.00;99.90
13072;DHT22;6602;58.934;11.166;2023-02-26T22:53:36;0.00;99.90
13072;DHT22;6602;58.934;11.166;2023-02-26T22:58:40;0.00;99.90
13072;DHT22;6602;58.934;11.166;2023-02-26T23:03:59;0.00;99.90
13072;DHT22;6602;58.934;11.166;2023-02-26T23:09:21;0.00;99.90
13072;DHT22;6602;58.934;11.166;2023-02-26T23:14:29;0.10;99.90
13072;DHT22;6602;58.934;11.166;2023-02-26T23:19:50;0.10;99.90
13072;DHT22;6602;58.934;11.166;2023-02-26T23:25:01;0.10;99.90
13072;DHT22;6602;58.934;11.166;2023-02-26T23:30:08;0.10;99.90
13072;DHT22;6602;58.934;11.166;2023-02-26T23:35:09;0.20;99.90
13072;DHT22;6602;58.934;11.166;2023-02-26T23:40:17;0.20;99.90
13072;DHT22;6602;58.934;11.166;2023-02-26T23:45:18;0.20;99.90
13072;DHT22;6602;58.934;11.166;2023-02-26T23:50:37;0.20;99.90
13072;DHT22;6602;58.934;11.166;2023-02-26T23:55:41;0.20;99.90
